TRA261P EHRD-LDSP
Flight info
| Callsign | TRA261P |
|---|---|
| Flight time | 1h 42m |
| Altitude | 35000 |
| Route | LUNIX Z739 MISGO DCT DOJOH DCT DODEN DCT NEGIX DCT DINKU M867 XERUM DCT BAVAX DCT RADIZ DCT URAVA DCT GIRDA DCT ULPIN DCT SAL |
| Aircraft | B738/M-SDE2E3FGHIJ1RWXYZ/LB1 |
Departure
| Time | 2026-04-28 17:52 |
|---|---|
| Airport | Rotterdam The Hague Airport (EHRD) |
Arrival
| Time | 2026-04-28 19:35 |
|---|---|
| Airport | Split Saint Jerome Airport (LDSP) |
| Time | Latitude | Longitude | Altitude | Speed | Heading |
|---|---|---|---|---|---|
| 2026-04-28 17:37 | 51.95088 | 4.43429 | -7 ft | 0 kts | 327° |
| 2026-04-28 17:48 | 51.95106 | 4.43411 | -7 ft | 6 kts | 333° |
| 2026-04-28 17:48 | 51.95145 | 4.43443 | -7 ft | 8 kts | 57° |
| 2026-04-28 17:49 | 51.95184 | 4.43491 | -6 ft | 8 kts | 350° |
| 2026-04-28 17:49 | 51.95236 | 4.43436 | -6 ft | 10 kts | 308° |
| 2026-04-28 17:49 | 51.95211 | 4.43326 | -6 ft | 12 kts | 237° |
| 2026-04-28 17:49 | 51.95155 | 4.43183 | -6 ft | 18 kts | 242° |
| 2026-04-28 17:50 | 51.95114 | 4.43044 | -6 ft | 4 kts | 246° |
| 2026-04-28 17:50 | 51.95110 | 4.43029 | -6 ft | 0 kts | 251° |
| 2026-04-28 17:51 | 51.95108 | 4.43013 | -6 ft | 7 kts | 259° |
| 2026-04-28 17:51 | 51.95145 | 4.42913 | -6 ft | 14 kts | 326° |
| 2026-04-28 17:51 | 51.95215 | 4.42862 | -6 ft | 9 kts | 30° |
| 2026-04-28 17:51 | 51.95294 | 4.43043 | -6 ft | 48 kts | 57° |
| 2026-04-28 17:52 | 51.95613 | 4.43837 | -6 ft | 117 kts | 57° |
| 2026-04-28 17:52 | 51.96135 | 4.45156 | 306 ft | 147 kts | 58° |
| 2026-04-28 17:52 | 51.97136 | 4.47897 | 2053 ft | 143 kts | 62° |
| 2026-04-28 17:53 | 51.97677 | 4.49462 | 2450 ft | 174 kts | 62° |
| 2026-04-28 17:53 | 51.98313 | 4.51311 | 2698 ft | 201 kts | 62° |
| 2026-04-28 17:53 | 51.99015 | 4.53427 | 3025 ft | 226 kts | 63° |
| 2026-04-28 17:53 | 51.99758 | 4.55776 | 3717 ft | 237 kts | 60° |
| 2026-04-28 17:54 | 52.00874 | 4.57774 | 4618 ft | 247 kts | 39° |
| 2026-04-28 17:54 | 52.02439 | 4.59126 | 5420 ft | 258 kts | 29° |
| 2026-04-28 17:54 | 52.04060 | 4.60283 | 6400 ft | 260 kts | 27° |
| 2026-04-28 17:54 | 52.05616 | 4.61837 | 7156 ft | 259 kts | 53° |
| 2026-04-28 17:55 | 52.06535 | 4.64300 | 8077 ft | 258 kts | 65° |
| 2026-04-28 17:55 | 52.07318 | 4.66921 | 8993 ft | 257 kts | 66° |
| 2026-04-28 17:55 | 52.08090 | 4.69585 | 9798 ft | 264 kts | 66° |
| 2026-04-28 17:55 | 52.08876 | 4.72307 | 10618 ft | 266 kts | 66° |
| 2026-04-28 17:56 | 52.09693 | 4.75128 | 10964 ft | 288 kts | 66° |
| 2026-04-28 17:56 | 52.10584 | 4.78196 | 11261 ft | 309 kts | 66° |
| 2026-04-28 17:56 | 52.11522 | 4.81410 | 11860 ft | 318 kts | 66° |
| 2026-04-28 17:56 | 52.12470 | 4.84649 | 12630 ft | 317 kts | 66° |
| 2026-04-28 17:57 | 52.13417 | 4.87884 | 13143 ft | 318 kts | 66° |
| 2026-04-28 17:57 | 52.14178 | 4.91211 | 13216 ft | 321 kts | 82° |
| 2026-04-28 17:57 | 52.14069 | 4.94857 | 13248 ft | 331 kts | 103° |
| 2026-04-28 17:57 | 52.13292 | 4.98417 | 13246 ft | 336 kts | 111° |
| 2026-04-28 17:58 | 52.12402 | 5.01913 | 13485 ft | 333 kts | 112° |
| 2026-04-28 17:58 | 52.11495 | 5.05409 | 14187 ft | 336 kts | 111° |
| 2026-04-28 17:58 | 52.10582 | 5.08928 | 14938 ft | 338 kts | 111° |
| 2026-04-28 17:58 | 52.09672 | 5.12454 | 15725 ft | 338 kts | 111° |
| 2026-04-28 17:59 | 52.08523 | 5.15840 | 16293 ft | 348 kts | 123° |
| 2026-04-28 17:59 | 52.07085 | 5.18984 | 17151 ft | 346 kts | 124° |
| 2026-04-28 17:59 | 52.05618 | 5.22111 | 17828 ft | 350 kts | 124° |
| 2026-04-28 17:59 | 52.04135 | 5.25260 | 18585 ft | 352 kts | 124° |
| 2026-04-28 18:00 | 52.02635 | 5.28459 | 19043 ft | 359 kts | 126° |
| 2026-04-28 18:00 | 52.01117 | 5.31710 | 19635 ft | 361 kts | 125° |
| 2026-04-28 18:00 | 51.99598 | 5.34973 | 20218 ft | 365 kts | 124° |
| 2026-04-28 18:00 | 51.98057 | 5.38292 | 20712 ft | 371 kts | 125° |
| 2026-04-28 18:01 | 51.96499 | 5.41650 | 21318 ft | 373 kts | 124° |
| 2026-04-28 18:01 | 51.94928 | 5.45034 | 21862 ft | 376 kts | 125° |
| 2026-04-28 18:01 | 51.93350 | 5.48431 | 22508 ft | 378 kts | 124° |
| 2026-04-28 18:01 | 51.91758 | 5.51861 | 22937 ft | 384 kts | 125° |
| 2026-04-28 18:02 | 51.90138 | 5.55348 | 23380 ft | 390 kts | 124° |
| 2026-04-28 18:02 | 51.88493 | 5.58881 | 23767 ft | 397 kts | 126° |
| 2026-04-28 18:02 | 51.86818 | 5.62471 | 24214 ft | 399 kts | 126° |
| 2026-04-28 18:02 | 51.85147 | 5.66045 | 24778 ft | 399 kts | 126° |
| 2026-04-28 18:03 | 51.83467 | 5.69636 | 25183 ft | 402 kts | 124° |
| 2026-04-28 18:03 | 51.82346 | 5.72030 | 25458 ft | 404 kts | 124° |
| 2026-04-28 18:03 | 51.80642 | 5.75667 | 25871 ft | 407 kts | 125° |
| 2026-04-28 18:03 | 51.78926 | 5.79324 | 26310 ft | 409 kts | 126° |
| 2026-04-28 18:04 | 51.77181 | 5.83035 | 26686 ft | 413 kts | 126° |
| 2026-04-28 18:04 | 51.75449 | 5.86716 | 26912 ft | 420 kts | 125° |
| 2026-04-28 18:04 | 51.73676 | 5.90479 | 27288 ft | 422 kts | 126° |
| 2026-04-28 18:04 | 51.71896 | 5.94251 | 27747 ft | 423 kts | 125° |
| 2026-04-28 18:05 | 51.70112 | 5.98024 | 28164 ft | 425 kts | 125° |
| 2026-04-28 18:05 | 51.68312 | 6.01825 | 28492 ft | 428 kts | 125° |
| 2026-04-28 18:05 | 51.66499 | 6.05648 | 28848 ft | 431 kts | 126° |
| 2026-04-28 18:05 | 51.64673 | 6.09492 | 29229 ft | 433 kts | 127° |
| 2026-04-28 18:06 | 51.62841 | 6.13348 | 29582 ft | 435 kts | 127° |
| 2026-04-28 18:06 | 51.60994 | 6.17223 | 29909 ft | 437 kts | 127° |
| 2026-04-28 18:06 | 51.59137 | 6.21115 | 30250 ft | 439 kts | 127° |
| 2026-04-28 18:06 | 51.57270 | 6.25020 | 30512 ft | 442 kts | 127° |
| 2026-04-28 18:07 | 51.55389 | 6.28951 | 30712 ft | 446 kts | 127° |
| 2026-04-28 18:07 | 51.53489 | 6.32917 | 30918 ft | 449 kts | 127° |
| 2026-04-28 18:07 | 51.51578 | 6.36897 | 31202 ft | 451 kts | 127° |
| 2026-04-28 18:07 | 51.49665 | 6.40876 | 31564 ft | 449 kts | 127° |
| 2026-04-28 18:08 | 51.47753 | 6.44848 | 31843 ft | 451 kts | 127° |
| 2026-04-28 18:08 | 51.45825 | 6.48847 | 32063 ft | 453 kts | 127° |
| 2026-04-28 18:08 | 51.43909 | 6.52814 | 32538 ft | 450 kts | 127° |
| 2026-04-28 18:08 | 51.41986 | 6.56789 | 32779 ft | 452 kts | 127° |
| 2026-04-28 18:09 | 51.40062 | 6.60762 | 33120 ft | 451 kts | 127° |
| 2026-04-28 18:09 | 51.38128 | 6.64748 | 33306 ft | 454 kts | 128° |
| 2026-04-28 18:09 | 51.36183 | 6.68754 | 33502 ft | 458 kts | 129° |
| 2026-04-28 18:09 | 51.34216 | 6.72793 | 33654 ft | 461 kts | 129° |
| 2026-04-28 18:10 | 51.32253 | 6.76819 | 34155 ft | 457 kts | 129° |
| 2026-04-28 18:10 | 51.30300 | 6.80820 | 34409 ft | 457 kts | 129° |
| 2026-04-28 18:10 | 51.28336 | 6.84837 | 34603 ft | 459 kts | 129° |
| 2026-04-28 18:10 | 51.26373 | 6.88846 | 34815 ft | 460 kts | 129° |
| 2026-04-28 18:11 | 51.24402 | 6.92864 | 35073 ft | 459 kts | 129° |
| 2026-04-28 18:11 | 51.22435 | 6.96869 | 35162 ft | 460 kts | 129° |
| 2026-04-28 18:11 | 51.18470 | 7.04921 | 35172 ft | 462 kts | 129° |
| 2026-04-28 18:12 | 51.14512 | 7.12937 | 35163 ft | 458 kts | 129° |
| 2026-04-28 18:12 | 51.10575 | 7.20884 | 35149 ft | 456 kts | 130° |
| 2026-04-28 18:13 | 51.06653 | 7.28776 | 35158 ft | 455 kts | 130° |
| 2026-04-28 18:13 | 51.02725 | 7.36657 | 35161 ft | 455 kts | 130° |
| 2026-04-28 18:14 | 50.98781 | 7.44544 | 35164 ft | 457 kts | 130° |
| 2026-04-28 18:14 | 50.94812 | 7.52460 | 35168 ft | 460 kts | 130° |
| 2026-04-28 18:15 | 50.90842 | 7.60353 | 35163 ft | 462 kts | 130° |
| 2026-04-28 18:15 | 50.86789 | 7.68392 | 35171 ft | 465 kts | 130° |
| 2026-04-28 18:16 | 50.82654 | 7.76291 | 35167 ft | 466 kts | 137° |
| 2026-04-28 18:16 | 50.77941 | 7.83311 | 35182 ft | 466 kts | 140° |
| 2026-04-28 18:17 | 50.73180 | 7.90168 | 35178 ft | 467 kts | 140° |
| 2026-04-28 18:17 | 50.68426 | 7.97155 | 35188 ft | 467 kts | 140° |
| 2026-04-28 18:18 | 50.63689 | 8.04161 | 35180 ft | 466 kts | 140° |
| 2026-04-28 18:18 | 50.59754 | 8.10058 | 35159 ft | 467 kts | 135° |
| 2026-04-28 18:19 | 50.54985 | 8.19310 | 35147 ft | 469 kts | 130° |
| 2026-04-28 18:19 | 50.50986 | 8.27390 | 35157 ft | 468 kts | 131° |
| 2026-04-28 18:20 | 50.46937 | 8.35387 | 35151 ft | 468 kts | 131° |
| 2026-04-28 18:20 | 50.42859 | 8.43347 | 35149 ft | 468 kts | 132° |
| 2026-04-28 18:21 | 50.38772 | 8.51306 | 35153 ft | 469 kts | 132° |
| 2026-04-28 18:21 | 50.34495 | 8.58996 | 35145 ft | 467 kts | 136° |
| 2026-04-28 18:22 | 50.30023 | 8.66387 | 35136 ft | 468 kts | 137° |
| 2026-04-28 18:22 | 50.25535 | 8.73762 | 35136 ft | 468 kts | 137° |
| 2026-04-28 18:23 | 50.21063 | 8.81167 | 35136 ft | 469 kts | 137° |
| 2026-04-28 18:23 | 50.16585 | 8.88599 | 35129 ft | 470 kts | 137° |
| 2026-04-28 18:24 | 50.12863 | 8.94769 | 35134 ft | 470 kts | 137° |
| 2026-04-28 18:24 | 50.07618 | 9.03433 | 35133 ft | 470 kts | 137° |
| 2026-04-28 18:25 | 50.03128 | 9.10826 | 35129 ft | 470 kts | 137° |
| 2026-04-28 18:26 | 49.96380 | 9.21893 | 35135 ft | 470 kts | 137° |
| 2026-04-28 18:26 | 49.91875 | 9.29256 | 35123 ft | 470 kts | 137° |
| 2026-04-28 18:27 | 49.87374 | 9.36589 | 35123 ft | 469 kts | 137° |
| 2026-04-28 18:27 | 49.82867 | 9.43912 | 35121 ft | 469 kts | 137° |
| 2026-04-28 18:28 | 49.78362 | 9.51211 | 35120 ft | 469 kts | 138° |
| 2026-04-28 18:28 | 49.73881 | 9.58450 | 35126 ft | 469 kts | 138° |
| 2026-04-28 18:29 | 49.69340 | 9.65764 | 35128 ft | 469 kts | 138° |
| 2026-04-28 18:29 | 49.64850 | 9.72976 | 35123 ft | 469 kts | 138° |
| 2026-04-28 18:30 | 49.60322 | 9.80227 | 35130 ft | 469 kts | 138° |
| 2026-04-28 18:30 | 49.55783 | 9.87477 | 35131 ft | 470 kts | 138° |
| 2026-04-28 18:31 | 49.51195 | 9.94782 | 35128 ft | 475 kts | 139° |
| 2026-04-28 18:31 | 49.46580 | 10.02102 | 35134 ft | 483 kts | 139° |
| 2026-04-28 18:32 | 49.41899 | 10.09521 | 35138 ft | 483 kts | 139° |
| 2026-04-28 18:32 | 49.37217 | 10.16916 | 35128 ft | 483 kts | 140° |
| 2026-04-28 18:33 | 49.32531 | 10.24295 | 35131 ft | 482 kts | 140° |
| 2026-04-28 18:33 | 49.27850 | 10.31647 | 35102 ft | 482 kts | 140° |
| 2026-04-28 18:34 | 49.23057 | 10.38751 | 35132 ft | 475 kts | 149° |
| 2026-04-28 18:34 | 49.17529 | 10.44035 | 35141 ft | 467 kts | 157° |
| 2026-04-28 18:35 | 49.11892 | 10.49023 | 35142 ft | 469 kts | 157° |
| 2026-04-28 18:35 | 49.06254 | 10.54089 | 35138 ft | 472 kts | 156° |
| 2026-04-28 18:36 | 49.00602 | 10.59212 | 35126 ft | 473 kts | 156° |
| 2026-04-28 18:36 | 48.94925 | 10.64351 | 35143 ft | 475 kts | 156° |
| 2026-04-28 18:37 | 48.89230 | 10.69491 | 35134 ft | 477 kts | 156° |
| 2026-04-28 18:37 | 48.83500 | 10.74649 | 35132 ft | 480 kts | 155° |
| 2026-04-28 18:38 | 48.78287 | 10.81169 | 35115 ft | 494 kts | 137° |
| 2026-04-28 18:38 | 48.73723 | 10.88967 | 35105 ft | 494 kts | 136° |
| 2026-04-28 18:39 | 48.69179 | 10.96764 | 35105 ft | 493 kts | 136° |
| 2026-04-28 18:39 | 48.64599 | 11.04475 | 35100 ft | 492 kts | 136° |
| 2026-04-28 18:40 | 48.60007 | 11.12122 | 35103 ft | 493 kts | 137° |
| 2026-04-28 18:40 | 48.55345 | 11.19847 | 35110 ft | 503 kts | 137° |
| 2026-04-28 18:41 | 48.50607 | 11.27689 | 35072 ft | 507 kts | 135° |
| 2026-04-28 18:41 | 48.45846 | 11.35557 | 35087 ft | 509 kts | 135° |
| 2026-04-28 18:42 | 48.41063 | 11.43434 | 35095 ft | 510 kts | 135° |
| 2026-04-28 18:42 | 48.36273 | 11.51298 | 35095 ft | 510 kts | 136° |
| 2026-04-28 18:43 | 48.31479 | 11.59147 | 35100 ft | 509 kts | 136° |
| 2026-04-28 18:43 | 48.26690 | 11.66961 | 35105 ft | 508 kts | 136° |
| 2026-04-28 18:44 | 48.21652 | 11.74308 | 35105 ft | 504 kts | 141° |
| 2026-04-28 18:44 | 48.13832 | 11.84782 | 35087 ft | 502 kts | 142° |
| 2026-04-28 18:45 | 48.08652 | 11.91789 | 35085 ft | 502 kts | 141° |
| 2026-04-28 18:45 | 48.03497 | 11.98814 | 35093 ft | 501 kts | 141° |
| 2026-04-28 18:46 | 47.98347 | 12.05824 | 35066 ft | 501 kts | 141° |
| 2026-04-28 18:46 | 47.94056 | 12.11648 | 35077 ft | 502 kts | 141° |
| 2026-04-28 18:47 | 47.88885 | 12.18641 | 35076 ft | 502 kts | 141° |
| 2026-04-28 18:47 | 47.83697 | 12.25638 | 35079 ft | 504 kts | 141° |
| 2026-04-28 18:48 | 47.78492 | 12.32638 | 35065 ft | 505 kts | 141° |
| 2026-04-28 18:48 | 47.73281 | 12.39630 | 35057 ft | 506 kts | 141° |
| 2026-04-28 18:49 | 47.68936 | 12.45445 | 35058 ft | 506 kts | 141° |
| 2026-04-28 18:49 | 47.62793 | 12.53532 | 35061 ft | 503 kts | 146° |
| 2026-04-28 18:50 | 47.56904 | 12.58925 | 35067 ft | 496 kts | 156° |
| 2026-04-28 18:50 | 47.50810 | 12.63885 | 35051 ft | 503 kts | 156° |
| 2026-04-28 18:51 | 47.44702 | 12.68908 | 35052 ft | 503 kts | 156° |
| 2026-04-28 18:51 | 47.38594 | 12.73992 | 35061 ft | 503 kts | 155° |
| 2026-04-28 18:52 | 47.32501 | 12.79074 | 35074 ft | 504 kts | 155° |
| 2026-04-28 18:52 | 47.26389 | 12.84154 | 35074 ft | 504 kts | 155° |
| 2026-04-28 18:53 | 47.20292 | 12.89206 | 35069 ft | 503 kts | 155° |
| 2026-04-28 18:53 | 47.14202 | 12.94236 | 35093 ft | 501 kts | 155° |
| 2026-04-28 18:54 | 47.08135 | 12.99234 | 35078 ft | 499 kts | 155° |
| 2026-04-28 18:54 | 47.02076 | 13.04211 | 35076 ft | 500 kts | 155° |
| 2026-04-28 18:55 | 46.95996 | 13.09192 | 35088 ft | 501 kts | 155° |
| 2026-04-28 18:55 | 46.89944 | 13.14141 | 35101 ft | 503 kts | 155° |
| 2026-04-28 18:56 | 46.83830 | 13.19140 | 35068 ft | 504 kts | 155° |
| 2026-04-28 18:56 | 46.77712 | 13.24096 | 35060 ft | 501 kts | 155° |
| 2026-04-28 18:57 | 46.71632 | 13.29026 | 35083 ft | 500 kts | 155° |
| 2026-04-28 18:57 | 46.65536 | 13.33957 | 35084 ft | 502 kts | 155° |
| 2026-04-28 18:58 | 46.59423 | 13.38889 | 35047 ft | 503 kts | 155° |
| 2026-04-28 18:58 | 46.53297 | 13.43819 | 35073 ft | 503 kts | 155° |
| 2026-04-28 18:59 | 46.47171 | 13.48738 | 35053 ft | 503 kts | 155° |
| 2026-04-28 18:59 | 46.41040 | 13.53621 | 35052 ft | 502 kts | 157° |
| 2026-04-28 19:00 | 46.34738 | 13.57914 | 35047 ft | 499 kts | 161° |
| 2026-04-28 19:00 | 46.28363 | 13.61908 | 35042 ft | 499 kts | 161° |
| 2026-04-28 19:01 | 46.21996 | 13.65939 | 35046 ft | 500 kts | 160° |
| 2026-04-28 19:01 | 46.15636 | 13.70032 | 35042 ft | 500 kts | 160° |
| 2026-04-28 19:02 | 46.09298 | 13.74127 | 35077 ft | 498 kts | 160° |
| 2026-04-28 19:02 | 46.02975 | 13.78202 | 35078 ft | 497 kts | 160° |
| 2026-04-28 19:03 | 45.96658 | 13.82257 | 35077 ft | 497 kts | 160° |
| 2026-04-28 19:03 | 45.90349 | 13.86294 | 35075 ft | 496 kts | 160° |
| 2026-04-28 19:04 | 45.84053 | 13.90315 | 35084 ft | 495 kts | 160° |
| 2026-04-28 19:04 | 45.77756 | 13.94325 | 35078 ft | 495 kts | 160° |
| 2026-04-28 19:05 | 45.71500 | 13.98299 | 35086 ft | 495 kts | 160° |
| 2026-04-28 19:05 | 45.65203 | 14.02290 | 35071 ft | 495 kts | 160° |
| 2026-04-28 19:06 | 45.59927 | 14.05628 | 35072 ft | 494 kts | 160° |
| 2026-04-28 19:06 | 45.52621 | 14.10239 | 35078 ft | 494 kts | 160° |
| 2026-04-28 19:07 | 45.46340 | 14.14204 | 35079 ft | 494 kts | 160° |
| 2026-04-28 19:07 | 45.40126 | 14.18396 | 35070 ft | 494 kts | 158° |
| 2026-04-28 19:08 | 45.33942 | 14.22672 | 35055 ft | 494 kts | 158° |
| 2026-04-28 19:08 | 45.27756 | 14.26910 | 35070 ft | 493 kts | 158° |
| 2026-04-28 19:09 | 45.21561 | 14.31113 | 35050 ft | 493 kts | 158° |
| 2026-04-28 19:09 | 45.15379 | 14.35289 | 35052 ft | 492 kts | 158° |
| 2026-04-28 19:10 | 45.09193 | 14.39458 | 35051 ft | 492 kts | 158° |
| 2026-04-28 19:10 | 45.03007 | 14.43621 | 35043 ft | 492 kts | 158° |
| 2026-04-28 19:11 | 44.96826 | 14.47770 | 35053 ft | 492 kts | 158° |
| 2026-04-28 19:11 | 44.90646 | 14.51908 | 35044 ft | 492 kts | 158° |
| 2026-04-28 19:12 | 44.84444 | 14.56050 | 34612 ft | 498 kts | 158° |
| 2026-04-28 19:12 | 44.81308 | 14.58140 | 33986 ft | 499 kts | 158° |
| 2026-04-28 19:12 | 44.78178 | 14.60227 | 33242 ft | 496 kts | 158° |
| 2026-04-28 19:13 | 44.75072 | 14.62296 | 32541 ft | 493 kts | 158° |
| 2026-04-28 19:13 | 44.71979 | 14.64352 | 31918 ft | 489 kts | 158° |
| 2026-04-28 19:13 | 44.68926 | 14.66385 | 31522 ft | 486 kts | 158° |
| 2026-04-28 19:13 | 44.65859 | 14.68452 | 31128 ft | 492 kts | 158° |
| 2026-04-28 19:14 | 44.62759 | 14.70557 | 30629 ft | 496 kts | 158° |
| 2026-04-28 19:14 | 44.59663 | 14.72666 | 30113 ft | 493 kts | 157° |
| 2026-04-28 19:14 | 44.56583 | 14.74764 | 29543 ft | 490 kts | 157° |
| 2026-04-28 19:14 | 44.53545 | 14.76831 | 29017 ft | 481 kts | 157° |
| 2026-04-28 19:15 | 44.50556 | 14.78859 | 28500 ft | 473 kts | 157° |
| 2026-04-28 19:15 | 44.47653 | 14.80822 | 27994 ft | 467 kts | 158° |
| 2026-04-28 19:15 | 44.44748 | 14.82784 | 27490 ft | 460 kts | 158° |
| 2026-04-28 19:15 | 44.42808 | 14.84091 | 27151 ft | 456 kts | 158° |
| 2026-04-28 19:16 | 44.39047 | 14.86621 | 26502 ft | 449 kts | 157° |
| 2026-04-28 19:16 | 44.36252 | 14.88499 | 26007 ft | 444 kts | 157° |
| 2026-04-28 19:16 | 44.33485 | 14.90357 | 25541 ft | 439 kts | 157° |
| 2026-04-28 19:16 | 44.30744 | 14.92195 | 25068 ft | 435 kts | 157° |
| 2026-04-28 19:17 | 44.28028 | 14.94016 | 24592 ft | 431 kts | 157° |
| 2026-04-28 19:17 | 44.25334 | 14.95819 | 24132 ft | 428 kts | 157° |
| 2026-04-28 19:17 | 44.22663 | 14.97605 | 23646 ft | 425 kts | 157° |
| 2026-04-28 19:17 | 44.20000 | 14.99384 | 23109 ft | 422 kts | 157° |
| 2026-04-28 19:18 | 44.17364 | 15.01144 | 22616 ft | 418 kts | 158° |
| 2026-04-28 19:18 | 44.14754 | 15.02885 | 22141 ft | 414 kts | 158° |
| 2026-04-28 19:18 | 44.12167 | 15.04609 | 21685 ft | 410 kts | 158° |
| 2026-04-28 19:18 | 44.09611 | 15.06311 | 21284 ft | 404 kts | 158° |
| 2026-04-28 19:19 | 44.07184 | 15.08252 | 20869 ft | 403 kts | 146° |
| 2026-04-28 19:19 | 44.05075 | 15.10813 | 20439 ft | 402 kts | 136° |
| 2026-04-28 19:19 | 44.03164 | 15.13602 | 19919 ft | 394 kts | 135° |
| 2026-04-28 19:19 | 44.01286 | 15.16359 | 19192 ft | 392 kts | 135° |
| 2026-04-28 19:20 | 43.99417 | 15.19095 | 18470 ft | 390 kts | 135° |
| 2026-04-28 19:20 | 43.97554 | 15.21808 | 17750 ft | 385 kts | 135° |
| 2026-04-28 19:20 | 43.95720 | 15.24468 | 17086 ft | 378 kts | 135° |
| 2026-04-28 19:20 | 43.93914 | 15.27077 | 16431 ft | 372 kts | 135° |
| 2026-04-28 19:21 | 43.92132 | 15.29643 | 15760 ft | 367 kts | 135° |
| 2026-04-28 19:21 | 43.90361 | 15.32188 | 15149 ft | 368 kts | 135° |
| 2026-04-28 19:21 | 43.88593 | 15.34725 | 14781 ft | 363 kts | 135° |
| 2026-04-28 19:21 | 43.86864 | 15.37205 | 14344 ft | 355 kts | 135° |
| 2026-04-28 19:22 | 43.85152 | 15.39658 | 13734 ft | 353 kts | 135° |
| 2026-04-28 19:22 | 43.84024 | 15.41272 | 13294 ft | 351 kts | 135° |
| 2026-04-28 19:22 | 43.81766 | 15.44501 | 12510 ft | 346 kts | 135° |
| 2026-04-28 19:22 | 43.80101 | 15.46880 | 11934 ft | 342 kts | 135° |
| 2026-04-28 19:23 | 43.78478 | 15.49198 | 11378 ft | 339 kts | 135° |
| 2026-04-28 19:23 | 43.76824 | 15.51556 | 10869 ft | 334 kts | 135° |
| 2026-04-28 19:23 | 43.75265 | 15.53780 | 10694 ft | 318 kts | 135° |
| 2026-04-28 19:23 | 43.73760 | 15.55924 | 10440 ft | 305 kts | 135° |
| 2026-04-28 19:24 | 43.72299 | 15.58003 | 10255 ft | 297 kts | 135° |
| 2026-04-28 19:24 | 43.70882 | 15.60019 | 10160 ft | 288 kts | 135° |
| 2026-04-28 19:24 | 43.69501 | 15.61981 | 9948 ft | 284 kts | 135° |
| 2026-04-28 19:24 | 43.68125 | 15.63933 | 9634 ft | 283 kts | 135° |
| 2026-04-28 19:25 | 43.66753 | 15.65880 | 9303 ft | 283 kts | 135° |
| 2026-04-28 19:25 | 43.65382 | 15.67824 | 8997 ft | 282 kts | 135° |
| 2026-04-28 19:25 | 43.64018 | 15.69756 | 8714 ft | 280 kts | 135° |
| 2026-04-28 19:25 | 43.62660 | 15.71679 | 8424 ft | 279 kts | 135° |
| 2026-04-28 19:26 | 43.61308 | 15.73592 | 8132 ft | 278 kts | 135° |
| 2026-04-28 19:26 | 43.59962 | 15.75495 | 7857 ft | 277 kts | 135° |
| 2026-04-28 19:26 | 43.58622 | 15.77390 | 7577 ft | 275 kts | 135° |
| 2026-04-28 19:26 | 43.57288 | 15.79273 | 7298 ft | 274 kts | 135° |
| 2026-04-28 19:27 | 43.55957 | 15.81152 | 7024 ft | 273 kts | 135° |
| 2026-04-28 19:27 | 43.54633 | 15.83019 | 6751 ft | 272 kts | 135° |
| 2026-04-28 19:27 | 43.53316 | 15.84876 | 6445 ft | 268 kts | 135° |
| 2026-04-28 19:27 | 43.52014 | 15.86710 | 6003 ft | 267 kts | 135° |
| 2026-04-28 19:28 | 43.50719 | 15.88533 | 5607 ft | 264 kts | 135° |
| 2026-04-28 19:28 | 43.49436 | 15.90339 | 5302 ft | 264 kts | 135° |
| 2026-04-28 19:28 | 43.48153 | 15.92143 | 5020 ft | 263 kts | 135° |
| 2026-04-28 19:28 | 43.46885 | 15.93925 | 4870 ft | 257 kts | 135° |
| 2026-04-28 19:29 | 43.45655 | 15.95654 | 4745 ft | 249 kts | 135° |
| 2026-04-28 19:29 | 43.44862 | 15.96767 | 4693 ft | 240 kts | 135° |
| 2026-04-28 19:29 | 43.43353 | 15.98882 | 4535 ft | 223 kts | 135° |
| 2026-04-28 19:29 | 43.42300 | 16.00359 | 4434 ft | 209 kts | 135° |
| 2026-04-28 19:30 | 43.41303 | 16.01754 | 4264 ft | 201 kts | 135° |
| 2026-04-28 19:30 | 43.40462 | 16.03236 | 4065 ft | 197 kts | 109° |
| 2026-04-28 19:30 | 43.40507 | 16.05055 | 3908 ft | 194 kts | 63° |
| 2026-04-28 19:30 | 43.41185 | 16.06678 | 3720 ft | 199 kts | 59° |
| 2026-04-28 19:31 | 43.41930 | 16.08266 | 3494 ft | 199 kts | 53° |
| 2026-04-28 19:31 | 43.42768 | 16.09793 | 3268 ft | 196 kts | 52° |
| 2026-04-28 19:31 | 43.43579 | 16.11243 | 3059 ft | 192 kts | 52° |
| 2026-04-28 19:31 | 43.44386 | 16.12696 | 2887 ft | 193 kts | 52° |
| 2026-04-28 19:32 | 43.45209 | 16.14178 | 2673 ft | 196 kts | 52° |
| 2026-04-28 19:32 | 43.46032 | 16.15661 | 2408 ft | 194 kts | 52° |
| 2026-04-28 19:32 | 43.46840 | 16.17115 | 2146 ft | 187 kts | 52° |
| 2026-04-28 19:32 | 43.47602 | 16.18488 | 1914 ft | 174 kts | 52° |
| 2026-04-28 19:33 | 43.48306 | 16.19759 | 1755 ft | 158 kts | 52° |
| 2026-04-28 19:33 | 43.48969 | 16.20958 | 1504 ft | 158 kts | 52° |
| 2026-04-28 19:33 | 43.49643 | 16.22159 | 1266 ft | 159 kts | 51° |
| 2026-04-28 19:33 | 43.50323 | 16.23359 | 1049 ft | 159 kts | 51° |
| 2026-04-28 19:34 | 43.50987 | 16.24559 | 844 ft | 157 kts | 53° |
| 2026-04-28 19:34 | 43.51642 | 16.25764 | 641 ft | 156 kts | 52° |
| 2026-04-28 19:34 | 43.52306 | 16.26936 | 415 ft | 154 kts | 52° |
| 2026-04-28 19:34 | 43.52955 | 16.28104 | 205 ft | 152 kts | 52° |
| 2026-04-28 19:35 | 43.53576 | 16.29220 | 86 ft | 122 kts | 52° |
| 2026-04-28 19:35 | 43.53910 | 16.29822 | 74 ft | 47 kts | 52° |
| 2026-04-28 19:35 | 43.53995 | 16.29974 | 74 ft | 17 kts | 52° |
| 2026-04-28 19:35 | 43.54037 | 16.30103 | 73 ft | 8 kts | 147° |
| 2026-04-28 19:36 | 43.53999 | 16.30095 | 68 ft | 10 kts | 195° |
| 2026-04-28 19:36 | 43.53924 | 16.30064 | 67 ft | 13 kts | 201° |
| 2026-04-28 19:36 | 43.53863 | 16.29982 | 63 ft | 12 kts | 233° |
| 2026-04-28 19:36 | 43.53811 | 16.29888 | 67 ft | 12 kts | 232° |
| 2026-04-28 19:37 | 43.53760 | 16.29799 | 64 ft | 12 kts | 232° |
| 2026-04-28 19:37 | 43.53735 | 16.29752 | 64 ft | 5 kts | 232° |
| 2026-04-28 19:37 | 43.53705 | 16.29750 | 63 ft | 4 kts | 107° |
| 2026-04-28 19:37 | 43.53698 | 16.29791 | 62 ft | 4 kts | 111° |
| 2026-04-28 19:38 | 43.53694 | 16.29803 | 65 ft | 0 kts | 114° |
| 2026-04-28 19:38 | 43.53694 | 16.29804 | 65 ft | 0 kts | 114° |
| 2026-04-28 19:38 | 43.53693 | 16.29806 | 66 ft | 0 kts | 114° |